createdAt,value
2022-08-20T00:01:01.774Z,82.26
2022-08-20T00:02:05.211Z,82.61
2022-08-20T00:03:08.644Z,82.73
2022-08-20T00:04:10.123Z,83.75
2022-08-20T00:05:14.162Z,84.29
2022-08-20T00:06:20.213Z,84.21
2022-08-20T00:07:22.060Z,84.76
2022-08-20T00:08:24.117Z,85.12
2022-08-20T00:09:25.694Z,85.44
2022-08-20T00:10:33.659Z,85.23
2022-08-20T00:11:35.511Z,85.30
2022-08-20T00:12:38.586Z,85.07
2022-08-20T00:13:44.893Z,85.34
2022-08-20T00:14:46.414Z,85.56
2022-08-20T00:15:48.255Z,86.02
2022-08-20T00:16:50.189Z,85.97
2022-08-20T00:17:53.129Z,86.13
2022-08-20T00:18:54.697Z,85.94
2022-08-20T00:19:56.223Z,85.95
2022-08-20T00:20:58.278Z,85.70
2022-08-20T00:21:59.800Z,85.70
2022-08-20T00:23:02.250Z,85.67
2022-08-20T00:24:04.354Z,85.84
2022-08-20T00:25:07.431Z,85.00
2022-08-20T00:26:10.437Z,84.86
2022-08-20T00:27:11.975Z,85.31
2022-08-20T00:28:13.933Z,85.43
2022-08-20T00:29:16.440Z,85.34
2022-08-20T00:30:22.888Z,85.13
2022-08-20T00:31:24.679Z,85.20
2022-08-20T00:32:26.185Z,85.80
2022-08-20T00:33:27.985Z,86.07
2022-08-20T00:34:30.219Z,85.69
2022-08-20T00:35:35.616Z,85.51
2022-08-20T00:36:37.183Z,83.97
2022-08-20T00:37:38.730Z,82.83
2022-08-20T00:38:43.219Z,82.63
2022-08-20T00:39:44.920Z,82.11
2022-08-20T00:40:53.411Z,81.91
2022-08-20T00:41:55.138Z,82.08
2022-08-20T00:42:59.891Z,81.75
2022-08-20T00:44:13.129Z,81.55
2022-08-20T00:45:16.378Z,81.91
2022-08-20T00:46:27.912Z,82.52
2022-08-20T00:47:33.900Z,82.72
2022-08-20T00:48:39.687Z,82.89
2022-08-20T00:49:41.270Z,83.83
2022-08-20T00:50:43.320Z,84.48
2022-08-20T00:51:53.320Z,84.79
2022-08-20T00:52:55.422Z,84.63
2022-08-20T00:54:14.183Z,84.17
2022-08-20T00:55:18.038Z,83.82
2022-08-20T00:56:19.678Z,83.88
2022-08-20T00:57:59.064Z,83.26
2022-08-20T00:58:56.582Z,83.77
2022-08-20T00:59:59.371Z,83.62
2022-08-20T01:01:01.677Z,83.91
2022-08-20T01:02:07.636Z,83.82
2022-08-20T01:03:11.399Z,83.33
2022-08-20T01:04:13.391Z,82.74
2022-08-20T01:05:15.012Z,82.86
2022-08-20T01:06:16.573Z,82.68
2022-08-20T01:07:20.704Z,83.15
2022-08-20T01:08:24.629Z,83.13
2022-08-20T01:09:50.144Z,85.05
2022-08-20T01:10:50.273Z,85.75
2022-08-20T01:11:52.081Z,86.10
2022-08-20T01:12:59.405Z,86.20
2022-08-20T01:15:06.055Z,86.49
2022-08-20T01:16:17.572Z,86.94
2022-08-20T01:17:23.730Z,87.02
2022-08-20T01:18:27.594Z,87.41
2022-08-20T01:19:37.883Z,87.71
2022-08-20T01:20:46.433Z,87.76
2022-08-20T01:21:49.777Z,86.96
2022-08-20T01:23:30.384Z,86.30
2022-08-20T01:24:40.483Z,85.39
2022-08-20T01:25:49.546Z,85.06
2022-08-20T01:26:51.395Z,84.79
2022-08-20T01:27:55.436Z,84.33
2022-08-20T01:29:01.967Z,83.99
2022-08-20T01:30:06.899Z,83.28
2022-08-20T01:31:14.948Z,82.91
2022-08-20T01:32:16.512Z,83.45
2022-08-20T01:33:22.423Z,83.93
2022-08-20T01:34:23.863Z,83.13
2022-08-20T01:35:26.654Z,83.93
2022-08-20T01:36:31.921Z,84.50
2022-08-20T01:37:33.379Z,83.96
2022-08-20T01:38:36.938Z,83.94
2022-08-20T01:39:38.410Z,84.43
2022-08-20T01:41:10.243Z,84.62
2022-08-20T01:42:15.423Z,84.76
2022-08-20T01:43:17.672Z,85.74
2022-08-20T01:44:20.773Z,86.14
2022-08-20T01:45:26.879Z,86.22
2022-08-20T01:46:36.654Z,85.55
2022-08-20T01:47:38.863Z,85.69
2022-08-20T01:48:44.572Z,85.82
2022-08-20T01:49:51.764Z,85.95
2022-08-20T01:51:07.831Z,86.01
2022-08-20T01:52:13.110Z,84.97
2022-08-20T01:53:24.908Z,83.76
2022-08-20T01:54:27.154Z,84.94
2022-08-20T01:55:28.655Z,85.19
2022-08-20T01:56:32.266Z,86.16
2022-08-20T01:57:35.232Z,86.42
2022-08-20T01:58:40.451Z,87.05
2022-08-20T01:59:42.916Z,86.93
2022-08-20T02:00:44.761Z,87.16
2022-08-20T02:01:47.153Z,87.13
2022-08-20T02:02:50.452Z,87.43
2022-08-20T02:03:53.893Z,87.48
2022-08-20T02:04:55.380Z,87.13
2022-08-20T02:06:01.171Z,87.27
2022-08-20T02:07:06.049Z,87.02
2022-08-20T02:08:07.539Z,87.20
2022-08-20T02:09:15.586Z,86.90
2022-08-20T02:10:19.193Z,86.71
2022-08-20T02:11:22.355Z,86.60
2022-08-20T02:12:23.983Z,86.90
2022-08-20T02:13:25.450Z,86.78
2022-08-20T02:14:28.375Z,86.46
2022-08-20T02:15:34.749Z,86.42
2022-08-20T02:16:43.941Z,86.50
2022-08-20T02:17:57.863Z,86.64
2022-08-20T02:19:04.819Z,86.90
2022-08-20T02:20:20.457Z,86.83
2022-08-20T02:21:24.046Z,85.30
2022-08-20T02:22:49.907Z,84.63
2022-08-20T02:23:52.640Z,85.61
2022-08-20T02:24:54.227Z,85.99
2022-08-20T02:25:55.852Z,86.04
2022-08-20T02:26:57.414Z,86.16
2022-08-20T02:28:02.582Z,86.18
2022-08-20T02:29:07.669Z,85.67
2022-08-20T02:30:21.182Z,85.54
2022-08-20T02:31:34.202Z,85.82
2022-08-20T02:32:37.570Z,86.66
2022-08-20T02:33:39.075Z,86.86
2022-08-20T02:34:41.162Z,86.75
2022-08-20T02:35:46.726Z,85.88
2022-08-20T02:36:49.289Z,85.73
2022-08-20T02:37:51.710Z,85.90
2022-08-20T02:38:53.209Z,86.39
2022-08-20T02:39:54.729Z,84.89
2022-08-20T02:40:56.286Z,84.30
2022-08-20T02:41:57.723Z,85.22
2022-08-20T02:43:01.062Z,85.63
2022-08-20T02:44:03.037Z,85.88
2022-08-20T02:45:06.191Z,86.23
2022-08-20T02:46:07.796Z,86.59
2022-08-20T02:47:09.232Z,86.43
2022-08-20T02:48:21.539Z,86.76
2022-08-20T02:49:23.080Z,86.01
2022-08-20T02:50:26.114Z,86.74
2022-08-20T02:51:28.648Z,87.13
2022-08-20T02:52:32.602Z,87.81
2022-08-20T02:53:38.355Z,87.64
2022-08-20T02:54:39.805Z,87.55
2022-08-20T02:55:41.349Z,86.96
2022-08-20T02:56:42.816Z,86.49
2022-08-20T02:57:44.468Z,86.69
2022-08-20T02:58:47.073Z,86.93
2022-08-20T02:59:52.190Z,87.19
2022-08-20T03:00:54.112Z,86.35
2022-08-20T03:01:59.327Z,86.46
2022-08-20T03:03:02.518Z,86.93
2022-08-20T03:04:04.428Z,86.82
2022-08-20T03:05:06.551Z,86.85
2022-08-20T03:06:10.664Z,87.07
2022-08-20T03:07:12.153Z,86.91
2022-08-20T03:08:14.886Z,86.91
2022-08-20T03:09:16.726Z,86.91
2022-08-20T03:10:18.183Z,86.39
2022-08-20T03:11:20.599Z,86.06
2022-08-20T03:12:22.054Z,85.90
2022-08-20T03:13:24.168Z,86.00
2022-08-20T03:14:25.951Z,86.33
2022-08-20T03:15:28.415Z,86.55
2022-08-20T03:16:29.952Z,86.75
2022-08-20T03:17:31.378Z,86.67
2022-08-20T03:18:41.202Z,86.35
2022-08-20T03:19:43.000Z,86.39
2022-08-20T03:20:45.907Z,86.56
2022-08-20T03:21:47.655Z,86.18
2022-08-20T03:22:52.004Z,86.10
2022-08-20T03:23:53.453Z,85.62
2022-08-20T03:24:55.549Z,85.59
2022-08-20T03:25:57.024Z,85.74
2022-08-20T03:26:58.784Z,86.03
2022-08-20T03:28:00.707Z,86.16
2022-08-20T03:29:02.667Z,86.46
2022-08-20T03:30:08.864Z,86.53
2022-08-20T03:31:12.631Z,86.20
2022-08-20T03:32:16.725Z,85.70
2022-08-20T03:33:20.156Z,85.27
2022-08-20T03:34:21.599Z,85.13
2022-08-20T03:35:26.365Z,84.66
2022-08-20T03:36:29.450Z,84.63
2022-08-20T03:37:33.324Z,84.70
2022-08-20T03:38:35.295Z,84.88
2022-08-20T03:39:36.809Z,85.18
2022-08-20T03:40:39.214Z,85.47
2022-08-20T03:41:40.635Z,85.09
2022-08-20T03:42:43.582Z,84.80
2022-08-20T03:43:45.701Z,84.60
2022-08-20T03:44:48.400Z,84.13
2022-08-20T03:46:00.604Z,84.24
2022-08-20T03:47:07.584Z,83.94
2022-08-20T03:48:12.241Z,84.21
2022-08-20T03:49:13.726Z,84.31
2022-08-20T03:50:22.745Z,84.04
2022-08-20T03:51:25.336Z,84.21
2022-08-20T03:52:29.314Z,84.48
2022-08-20T03:53:31.701Z,84.75
2022-08-20T03:54:33.426Z,84.85
2022-08-20T03:55:35.417Z,85.10
2022-08-20T03:56:37.224Z,84.96
2022-08-20T03:57:50.063Z,83.74
2022-08-20T03:58:51.574Z,83.52
2022-08-20T03:59:57.997Z,83.22
2022-08-20T04:01:01.021Z,83.46
2022-08-20T04:02:02.713Z,83.32
2022-08-20T04:03:05.724Z,83.40
2022-08-20T04:04:12.236Z,83.23
2022-08-20T04:05:14.483Z,84.07
2022-08-20T04:06:16.446Z,84.39
2022-08-20T04:07:25.994Z,84.80
2022-08-20T04:08:31.865Z,84.65
2022-08-20T04:09:33.303Z,84.92
2022-08-20T04:10:35.091Z,85.64
2022-08-20T04:11:37.528Z,86.10
2022-08-20T04:12:48.721Z,86.35
2022-08-20T04:13:54.687Z,86.40
2022-08-20T04:14:56.187Z,86.91
2022-08-20T04:16:00.933Z,86.41
2022-08-20T04:17:08.100Z,86.11
2022-08-20T04:18:10.819Z,85.84
2022-08-20T04:19:12.254Z,85.84
2022-08-20T04:20:18.473Z,84.92
2022-08-20T04:21:19.887Z,85.09
2022-08-20T04:22:21.308Z,85.72
2022-08-20T04:23:23.421Z,86.23
2022-08-20T04:24:31.626Z,86.23
2022-08-20T04:25:36.341Z,86.26
2022-08-20T04:26:37.917Z,86.23
2022-08-20T04:27:39.972Z,86.02
2022-08-20T04:28:41.793Z,85.63
2022-08-20T04:29:44.362Z,84.77
2022-08-20T04:30:51.639Z,84.01
2022-08-20T04:31:53.620Z,83.89
2022-08-20T04:32:56.170Z,84.06
2022-08-20T04:33:57.913Z,83.72
2022-08-20T04:35:00.802Z,84.06
2022-08-20T04:36:05.227Z,84.10
2022-08-20T04:37:16.687Z,83.90
2022-08-20T04:38:21.030Z,84.48
2022-08-20T04:39:22.834Z,84.56
2022-08-20T04:40:43.082Z,84.26
2022-08-20T04:41:44.597Z,83.99
2022-08-20T04:42:46.008Z,84.01
2022-08-20T04:43:54.516Z,84.34
2022-08-20T04:44:56.086Z,85.17
2022-08-20T04:46:00.913Z,84.97
2022-08-20T04:47:02.369Z,85.16
2022-08-20T04:48:05.714Z,85.24
2022-08-20T04:49:08.023Z,85.43
2022-08-20T04:50:11.043Z,85.58
2022-08-20T04:51:15.085Z,85.68
2022-08-20T04:52:16.570Z,85.68
2022-08-20T04:53:25.291Z,85.75
2022-08-20T04:54:27.568Z,86.02
2022-08-20T04:55:29.984Z,86.16
2022-08-20T04:56:43.408Z,85.96
2022-08-20T04:57:44.988Z,85.71
2022-08-20T04:58:49.047Z,85.88
2022-08-20T04:59:51.849Z,86.04
2022-08-20T05:00:56.218Z,85.73
2022-08-20T05:02:02.874Z,86.11
2022-08-20T05:03:06.946Z,86.02
2022-08-20T05:04:08.402Z,86.41
2022-08-20T05:05:10.549Z,86.10
2022-08-20T05:06:12.410Z,86.20
2022-08-20T05:07:16.692Z,85.82
2022-08-20T05:08:20.866Z,85.97
2022-08-20T05:09:22.344Z,86.08
2022-08-20T05:10:24.241Z,86.15
2022-08-20T05:11:35.539Z,86.29
2022-08-20T05:12:38.305Z,86.67
2022-08-20T05:13:40.688Z,86.57
2022-08-20T05:14:42.877Z,86.53
2022-08-20T05:15:47.540Z,86.53
2022-08-20T05:16:50.828Z,85.81
2022-08-20T05:17:57.223Z,85.47
2022-08-20T05:18:59.476Z,85.53
2022-08-20T05:20:00.964Z,85.66
2022-08-20T05:21:06.322Z,86.31
2022-08-20T05:22:07.983Z,86.40
2022-08-20T05:23:12.391Z,86.04
2022-08-20T05:24:14.175Z,85.51
2022-08-20T05:25:15.652Z,85.68
2022-08-20T05:26:20.223Z,85.10
2022-08-20T05:27:24.709Z,85.16
2022-08-20T05:28:32.557Z,85.02
2022-08-20T05:29:37.274Z,85.38
2022-08-20T05:30:41.104Z,85.46
2022-08-20T05:31:43.273Z,85.54
2022-08-20T05:32:47.022Z,85.58
2022-08-20T05:33:51.740Z,85.59
2022-08-20T05:34:54.744Z,85.31
2022-08-20T05:35:57.742Z,85.03
2022-08-20T05:37:00.267Z,84.24
2022-08-20T05:38:02.623Z,83.97
2022-08-20T05:39:04.248Z,84.20
2022-08-20T05:40:12.247Z,84.35
2022-08-20T05:41:13.740Z,84.36
2022-08-20T05:42:30.142Z,85.21
2022-08-20T05:43:33.547Z,85.96
2022-08-20T05:44:37.914Z,85.17
2022-08-20T05:45:41.157Z,85.05
2022-08-20T05:46:44.953Z,85.44
2022-08-20T05:47:48.152Z,85.48
2022-08-20T05:48:59.482Z,85.45
2022-08-20T05:50:05.545Z,85.45
2022-08-20T05:51:06.995Z,85.45
2022-08-20T05:52:08.483Z,85.50
2022-08-20T05:53:10.055Z,85.36
2022-08-20T05:55:13.803Z,86.11
2022-08-20T05:56:15.272Z,85.72
2022-08-20T05:57:19.041Z,85.21
2022-08-20T05:58:24.297Z,85.12
2022-08-20T05:59:26.692Z,85.13
2022-08-20T06:00:29.641Z,85.23
2022-08-20T06:01:33.060Z,85.27
2022-08-20T06:02:53.046Z,85.93
2022-08-20T06:04:13.073Z,86.55
2022-08-20T06:05:14.588Z,86.61
2022-08-20T06:06:18.323Z,86.45
2022-08-20T06:07:38.619Z,86.53
2022-08-20T06:08:41.433Z,86.21
2022-08-20T06:09:44.473Z,86.45
2022-08-20T06:10:46.292Z,86.48
2022-08-20T06:11:47.816Z,86.80
2022-08-20T06:12:49.422Z,86.54
2022-08-20T06:13:50.890Z,85.82
2022-08-20T06:14:52.365Z,85.57
2022-08-20T06:15:53.846Z,85.59
2022-08-20T06:16:57.697Z,85.99
2022-08-20T06:18:01.368Z,86.74
2022-08-20T06:19:03.347Z,86.72
2022-08-20T06:20:08.188Z,87.10
2022-08-20T06:21:11.082Z,86.69
2022-08-20T06:22:19.006Z,85.87
2022-08-20T06:23:26.002Z,85.18
2022-08-20T06:24:27.596Z,85.68
2022-08-20T06:25:29.907Z,85.38
2022-08-20T06:26:31.809Z,86.15
2022-08-20T06:27:34.247Z,86.19
2022-08-20T06:28:37.530Z,86.18
2022-08-20T06:29:39.009Z,86.19
2022-08-20T06:30:40.957Z,86.21
2022-08-20T06:31:42.414Z,86.46
2022-08-20T06:32:43.944Z,86.63
2022-08-20T06:33:45.555Z,86.82
2022-08-20T06:34:50.350Z,86.75
2022-08-20T06:35:52.976Z,87.14
2022-08-20T06:36:55.722Z,87.19
2022-08-20T06:38:00.223Z,87.24
2022-08-20T06:39:01.673Z,87.04
2022-08-20T06:40:16.735Z,85.99
2022-08-20T06:41:18.449Z,87.07
2022-08-20T06:42:21.173Z,87.12
2022-08-20T06:43:22.668Z,87.19
2022-08-20T06:44:24.664Z,87.25
2022-08-20T06:45:31.865Z,87.18
2022-08-20T06:46:35.941Z,86.83
2022-08-20T06:47:42.867Z,86.34
2022-08-20T06:48:44.375Z,85.69
2022-08-20T06:49:47.571Z,85.40
2022-08-20T06:50:49.127Z,85.11
2022-08-20T06:51:52.081Z,85.00
2022-08-20T06:52:54.032Z,85.01
2022-08-20T06:53:56.195Z,86.22
2022-08-20T06:54:57.655Z,85.72
2022-08-20T06:55:59.370Z,85.81
2022-08-20T06:57:04.491Z,86.03
2022-08-20T06:58:08.358Z,86.18
2022-08-20T06:59:30.385Z,87.31
2022-08-20T07:00:33.353Z,86.91
2022-08-20T07:01:35.681Z,86.00
2022-08-20T07:02:37.383Z,85.55
2022-08-20T07:03:42.351Z,85.31
2022-08-20T07:04:57.906Z,84.88
2022-08-20T07:05:59.451Z,85.21
2022-08-20T07:07:01.130Z,84.61
2022-08-20T07:08:03.182Z,83.46
2022-08-20T07:09:04.642Z,83.11
2022-08-20T07:10:09.070Z,81.69
2022-08-20T07:11:12.190Z,82.20
2022-08-20T07:12:14.405Z,82.23
2022-08-20T07:13:16.397Z,82.36
2022-08-20T07:14:19.176Z,82.51
2022-08-20T07:15:23.071Z,82.64
2022-08-20T07:16:25.432Z,82.08
2022-08-20T07:17:26.938Z,81.73
2022-08-20T07:18:29.172Z,80.67
2022-08-20T07:19:31.450Z,81.04
2022-08-20T07:20:36.775Z,80.70
2022-08-20T07:21:38.288Z,80.92
2022-08-20T07:22:40.892Z,81.10
2022-08-20T07:23:42.566Z,80.01
2022-08-20T07:24:48.901Z,80.63
2022-08-20T07:25:50.881Z,80.97
2022-08-20T07:26:52.431Z,80.05
2022-08-20T07:28:04.138Z,79.94
2022-08-20T07:29:05.682Z,80.17
2022-08-20T07:30:28.638Z,80.45
2022-08-20T07:31:48.891Z,80.06
2022-08-20T07:32:51.440Z,77.85
2022-08-20T07:33:52.972Z,78.29
2022-08-20T07:34:55.970Z,79.41
2022-08-20T07:35:59.317Z,79.05
2022-08-20T07:37:00.796Z,78.16
2022-08-20T07:38:05.110Z,77.65
2022-08-20T07:39:07.003Z,79.04
2022-08-20T07:40:16.135Z,78.43
2022-08-20T07:41:18.514Z,78.69
2022-08-20T07:42:20.028Z,77.86
2022-08-20T07:43:24.083Z,77.46
2022-08-20T07:44:31.025Z,75.98
2022-08-20T07:45:33.182Z,75.36
2022-08-20T07:46:34.952Z,75.46
2022-08-20T07:47:41.770Z,73.93
2022-08-20T07:48:49.638Z,74.53
2022-08-20T07:49:51.139Z,74.64
2022-08-20T07:50:54.163Z,74.12
2022-08-20T07:51:56.631Z,73.14
2022-08-20T07:53:00.438Z,73.54
2022-08-20T07:54:02.021Z,73.77
2022-08-20T07:55:08.061Z,74.00
2022-08-20T07:56:13.516Z,74.30
2022-08-20T07:57:17.293Z,74.94
2022-08-20T07:58:22.416Z,74.24
2022-08-20T07:59:30.372Z,74.51
2022-08-20T08:00:32.310Z,74.27
2022-08-20T08:01:33.823Z,75.73
2022-08-20T08:02:36.694Z,74.38
2022-08-20T08:03:48.955Z,74.37
2022-08-20T08:04:50.994Z,74.88
2022-08-20T08:05:52.471Z,75.38
2022-08-20T08:06:56.184Z,75.54
2022-08-20T08:07:58.705Z,75.72
2022-08-20T08:09:06.265Z,74.37
2022-08-20T08:10:11.221Z,76.45
2022-08-20T08:11:12.898Z,76.05
2022-08-20T08:12:16.009Z,75.81
2022-08-20T08:13:17.450Z,76.23
2022-08-20T08:14:23.676Z,76.92
2022-08-20T08:15:29.406Z,77.06
2022-08-20T08:16:32.787Z,77.50
2022-08-20T08:17:35.256Z,77.76
2022-08-20T08:18:43.169Z,77.36
2022-08-20T08:19:49.212Z,77.35
2022-08-20T08:20:53.620Z,76.84
2022-08-20T08:21:57.412Z,76.94
2022-08-20T08:23:00.735Z,76.34
2022-08-20T08:24:02.671Z,76.50
2022-08-20T08:25:05.664Z,76.96
2022-08-20T08:26:07.103Z,77.17
2022-08-20T08:27:21.804Z,76.63
2022-08-20T08:28:24.158Z,76.78
2022-08-20T08:29:26.285Z,75.51
2022-08-20T08:30:28.438Z,75.13
2022-08-20T08:31:30.067Z,75.65
2022-08-20T08:32:32.684Z,75.97
2022-08-20T08:33:34.549Z,76.17
2022-08-20T08:34:37.327Z,76.72
2022-08-20T08:35:46.641Z,76.43
2022-08-20T08:36:48.207Z,76.10
2022-08-20T08:37:49.984Z,76.26
2022-08-20T08:38:51.521Z,76.69
2022-08-20T08:39:52.999Z,75.96
2022-08-20T08:41:00.215Z,76.50
2022-08-20T08:42:05.106Z,76.97
2022-08-20T08:43:07.043Z,77.16
2022-08-20T08:44:21.782Z,76.88
2022-08-20T08:45:27.564Z,77.12
2022-08-20T08:46:32.749Z,76.72
2022-08-20T08:47:37.857Z,77.38
2022-08-20T08:48:46.437Z,77.06
2022-08-20T08:49:48.413Z,75.98
2022-08-20T08:50:54.656Z,75.99
2022-08-20T08:52:07.111Z,76.22
2022-08-20T08:53:18.646Z,75.33
2022-08-20T08:54:25.101Z,75.11
2022-08-20T08:55:28.380Z,75.33
2022-08-20T08:56:30.895Z,75.52
2022-08-20T08:57:32.876Z,75.45
2022-08-20T08:58:35.275Z,75.49
2022-08-20T09:00:01.545Z,76.05
2022-08-20T09:01:01.689Z,76.15
2022-08-20T09:02:06.637Z,76.38
2022-08-20T09:03:10.085Z,76.56
2022-08-20T09:04:16.701Z,76.95
2022-08-20T09:05:27.535Z,77.19
2022-08-20T09:06:29.078Z,76.98
2022-08-20T09:07:33.379Z,76.86
2022-08-20T09:08:48.564Z,76.37
2022-08-20T09:09:51.186Z,75.75
2022-08-20T09:10:52.712Z,74.79
2022-08-20T09:12:01.968Z,74.92
2022-08-20T09:13:03.888Z,75.65
2022-08-20T09:14:05.716Z,75.05
2022-08-20T09:15:07.452Z,74.72
2022-08-20T09:16:10.036Z,74.22
2022-08-20T09:17:11.644Z,74.94
2022-08-20T09:18:13.169Z,75.27
2022-08-20T09:19:15.012Z,74.86
2022-08-20T09:20:18.234Z,75.24
2022-08-20T09:21:19.990Z,74.01
2022-08-20T09:22:23.151Z,73.17
2022-08-20T09:23:24.645Z,73.77
2022-08-20T09:24:26.466Z,73.63
2022-08-20T09:25:27.920Z,73.07
2022-08-20T09:26:29.423Z,73.51
2022-08-20T09:27:31.470Z,73.70
2022-08-20T09:28:34.897Z,73.43
2022-08-20T09:29:37.516Z,73.45
2022-08-20T09:30:39.121Z,72.65
2022-08-20T09:31:40.791Z,72.66
2022-08-20T09:32:43.143Z,73.40
2022-08-20T09:33:44.566Z,72.65
2022-08-20T09:34:52.604Z,71.39
2022-08-20T09:35:54.138Z,72.72
2022-08-20T09:36:55.579Z,73.52
2022-08-20T09:37:57.209Z,74.67
2022-08-20T09:38:58.848Z,74.30
2022-08-20T09:40:00.977Z,74.35
2022-08-20T09:41:02.499Z,74.58
2022-08-20T09:42:17.870Z,73.15
2022-08-20T09:43:19.394Z,72.66
2022-08-20T09:44:20.921Z,72.34
2022-08-20T09:45:22.893Z,71.59
2022-08-20T09:46:27.248Z,71.71
2022-08-20T09:47:29.131Z,72.16
2022-08-20T09:48:32.258Z,72.58
2022-08-20T09:49:33.944Z,73.19
2022-08-20T09:50:36.751Z,72.79
2022-08-20T09:51:38.448Z,72.99
2022-08-20T09:52:44.414Z,72.93
2022-08-20T09:53:46.400Z,73.05
2022-08-20T09:54:49.015Z,73.92
2022-08-20T09:55:54.413Z,72.91
2022-08-20T09:56:58.171Z,73.16
2022-08-20T09:58:01.020Z,72.09
2022-08-20T09:59:03.096Z,72.44
2022-08-20T10:00:12.845Z,71.46
2022-08-20T10:01:16.981Z,68.88
2022-08-20T10:02:18.516Z,69.56
2022-08-20T10:03:20.313Z,69.61
2022-08-20T10:04:21.857Z,69.08
2022-08-20T10:05:23.651Z,68.53
2022-08-20T10:06:25.270Z,68.44
2022-08-20T10:07:26.784Z,70.02
2022-08-20T10:08:28.370Z,69.67
2022-08-20T10:09:30.433Z,71.01
2022-08-20T10:10:31.924Z,69.16
2022-08-20T10:11:33.556Z,68.14
2022-08-20T10:12:35.081Z,67.69
2022-08-20T10:13:36.569Z,66.98
2022-08-20T10:14:38.350Z,66.15
2022-08-20T10:15:39.929Z,66.33
2022-08-20T10:16:43.425Z,65.30
2022-08-20T10:17:45.057Z,66.83
2022-08-20T10:18:49.146Z,66.13
2022-08-20T10:19:50.953Z,66.29
2022-08-20T10:20:52.406Z,65.56
2022-08-20T10:21:54.583Z,65.88
2022-08-20T10:22:56.043Z,65.26
2022-08-20T10:23:58.084Z,65.55
2022-08-20T10:24:59.889Z,65.37
2022-08-20T10:26:01.745Z,66.07
2022-08-20T10:27:03.283Z,65.92
2022-08-20T10:28:05.221Z,66.16
2022-08-20T10:29:06.644Z,66.36
2022-08-20T10:30:09.194Z,66.36
2022-08-20T10:31:12.682Z,65.93
2022-08-20T10:32:16.160Z,65.32
2022-08-20T10:33:17.623Z,65.22
2022-08-20T10:34:19.460Z,65.66
2022-08-20T10:35:21.515Z,66.37
2022-08-20T10:36:23.030Z,65.86
2022-08-20T10:37:25.854Z,65.59
2022-08-20T10:38:27.229Z,66.64
2022-08-20T10:39:28.681Z,67.29
2022-08-20T10:40:33.379Z,67.39
2022-08-20T10:41:38.745Z,67.17
2022-08-20T10:42:42.720Z,67.33
2022-08-20T10:43:44.296Z,67.16
2022-08-20T10:44:45.967Z,66.20
2022-08-20T10:45:47.720Z,66.21
2022-08-20T10:46:49.196Z,66.21
2022-08-20T10:47:55.054Z,64.74
2022-08-20T10:48:56.696Z,65.43
2022-08-20T10:50:00.746Z,66.16
2022-08-20T10:51:02.583Z,67.40
2022-08-20T10:52:06.091Z,66.93
2022-08-20T10:53:07.646Z,66.79
2022-08-20T10:54:12.504Z,67.17
2022-08-20T10:55:15.032Z,66.75
2022-08-20T10:56:16.837Z,66.65
2022-08-20T10:57:24.328Z,66.61
2022-08-20T10:58:27.014Z,65.90
2022-08-20T10:59:41.440Z,65.64
2022-08-20T11:00:43.250Z,65.15
2022-08-20T11:01:44.773Z,63.95
2022-08-20T11:02:46.677Z,63.94
2022-08-20T11:03:48.186Z,64.12
2022-08-20T11:04:50.831Z,64.37
2022-08-20T11:05:52.605Z,64.02
2022-08-20T11:06:54.088Z,64.62
2022-08-20T11:07:56.829Z,66.61
2022-08-20T11:08:58.475Z,65.51
2022-08-20T11:10:00.267Z,64.58
2022-08-20T11:11:02.452Z,64.29
2022-08-20T11:12:04.354Z,64.45
2022-08-20T11:13:07.293Z,65.08
2022-08-20T11:14:08.813Z,64.18
2022-08-20T11:15:10.628Z,63.92
2022-08-20T11:16:12.451Z,64.51
2022-08-20T11:17:19.918Z,64.08
2022-08-20T11:18:21.423Z,65.35
2022-08-20T11:19:22.912Z,65.06
2022-08-20T11:20:28.032Z,64.71
2022-08-20T11:21:29.848Z,65.40
2022-08-20T11:22:31.577Z,65.05
2022-08-20T11:23:33.290Z,65.07
2022-08-20T11:24:35.256Z,64.96
2022-08-20T11:25:36.802Z,65.78
2022-08-20T11:26:38.808Z,64.89
2022-08-20T11:27:46.361Z,64.62
2022-08-20T11:28:47.894Z,64.60
2022-08-20T11:29:49.368Z,64.84
2022-08-20T11:30:52.083Z,64.79
2022-08-20T11:31:53.863Z,66.08
2022-08-20T11:32:56.551Z,64.96
2022-08-20T11:33:58.055Z,65.19
2022-08-20T11:34:59.503Z,64.56
2022-08-20T11:36:00.986Z,65.58
2022-08-20T11:37:02.835Z,65.82
2022-08-20T11:38:04.718Z,64.04
2022-08-20T11:39:06.185Z,63.75
2022-08-20T11:40:09.218Z,64.89
2022-08-20T11:41:10.675Z,64.94
2022-08-20T11:42:12.661Z,64.82
2022-08-20T11:43:16.386Z,66.21
2022-08-20T11:44:21.164Z,65.01
2022-08-20T11:45:23.328Z,65.80
2022-08-20T11:46:28.493Z,65.60
2022-08-20T11:47:31.061Z,64.59
2022-08-20T11:48:32.535Z,64.14
2022-08-20T11:49:36.486Z,64.06
2022-08-20T11:50:37.979Z,64.36
2022-08-20T11:51:49.232Z,64.35
2022-08-20T11:52:51.734Z,64.83
2022-08-20T11:53:53.292Z,65.25
2022-08-20T11:54:55.240Z,65.58
2022-08-20T11:55:56.814Z,64.38
2022-08-20T11:56:59.821Z,64.21
2022-08-20T11:58:01.356Z,65.41
2022-08-20T11:59:03.039Z,65.71
2022-08-20T12:00:12.774Z,64.60
2022-08-20T12:01:15.107Z,64.32
2022-08-20T12:02:16.657Z,64.54
2022-08-20T12:03:18.298Z,64.44
2022-08-20T12:04:20.774Z,64.21
2022-08-20T12:05:23.286Z,65.07
2022-08-20T12:06:25.074Z,65.17
2022-08-20T12:07:26.565Z,64.85
2022-08-20T12:08:29.407Z,64.80
2022-08-20T12:09:30.797Z,65.22
2022-08-20T12:10:32.327Z,65.46
2022-08-20T12:11:34.130Z,65.53
2022-08-20T12:12:36.708Z,65.21
2022-08-20T12:13:47.911Z,65.42
2022-08-20T12:14:52.345Z,64.84
2022-08-20T12:15:54.573Z,63.25
2022-08-20T12:16:56.339Z,62.10
2022-08-20T12:17:57.956Z,61.72
2022-08-20T12:18:59.393Z,62.49
2022-08-20T12:20:04.364Z,61.66
2022-08-20T12:21:06.043Z,60.59
2022-08-20T12:22:24.530Z,60.53
2022-08-20T12:23:26.883Z,61.77
2022-08-20T12:24:28.862Z,61.26
2022-08-20T12:25:32.794Z,61.29
2022-08-20T12:26:34.639Z,60.95
2022-08-20T12:27:37.567Z,61.24
2022-08-20T12:28:39.265Z,61.34
2022-08-20T12:29:42.861Z,61.35
2022-08-20T12:30:44.335Z,61.13
2022-08-20T12:31:46.110Z,60.63
2022-08-20T12:32:48.402Z,60.55
2022-08-20T12:33:49.852Z,60.35
2022-08-20T12:34:51.952Z,61.16
2022-08-20T12:35:53.609Z,60.56
2022-08-20T12:37:10.043Z,60.43
2022-08-20T12:38:13.262Z,60.41
2022-08-20T12:39:14.753Z,60.42
2022-08-20T12:40:31.714Z,60.42
2022-08-20T12:41:34.747Z,60.74
2022-08-20T12:42:37.572Z,61.19
2022-08-20T12:43:38.924Z,61.55
2022-08-20T12:44:40.596Z,61.57
2022-08-20T12:45:42.180Z,61.36
2022-08-20T12:46:43.940Z,61.37
2022-08-20T12:47:47.192Z,61.92
2022-08-20T12:48:48.718Z,62.01
2022-08-20T12:50:02.688Z,62.03
2022-08-20T12:51:06.284Z,61.43
2022-08-20T12:52:08.095Z,61.44
2022-08-20T12:53:09.570Z,62.24
2022-08-20T12:54:11.007Z,62.67
2022-08-20T12:55:14.811Z,62.07
2022-08-20T12:56:16.602Z,62.34
2022-08-20T12:57:36.600Z,61.54
2022-08-20T12:58:38.331Z,62.80
2022-08-20T12:59:39.776Z,62.29
2022-08-20T13:00:48.644Z,62.46
2022-08-20T13:01:53.866Z,61.56
2022-08-20T13:02:56.916Z,61.02
2022-08-20T13:03:58.787Z,61.12
2022-08-20T13:05:05.440Z,60.96
2022-08-20T13:06:07.575Z,61.81
2022-08-20T13:07:12.858Z,61.68
2022-08-20T13:08:14.518Z,61.26
2022-08-20T13:09:16.768Z,61.08
2022-08-20T13:10:45.636Z,60.65
2022-08-20T13:11:49.261Z,61.13
2022-08-20T13:12:51.390Z,60.96
2022-08-20T13:13:52.830Z,60.19
2022-08-20T13:14:54.325Z,60.37
2022-08-20T13:15:56.178Z,60.71
2022-08-20T13:17:00.884Z,61.48
2022-08-20T13:18:04.160Z,61.44
2022-08-20T13:19:05.711Z,61.95
2022-08-20T13:20:10.942Z,62.26
2022-08-20T13:21:12.841Z,62.25
2022-08-20T13:22:14.569Z,62.37
2022-08-20T13:23:16.586Z,62.23
2022-08-20T13:24:18.055Z,62.59
2022-08-20T13:25:20.677Z,62.88
2022-08-20T13:26:22.500Z,63.43
2022-08-20T13:27:24.673Z,63.00
2022-08-20T13:28:26.147Z,62.55
2022-08-20T13:29:27.607Z,62.49
2022-08-20T13:30:29.191Z,62.93
2022-08-20T13:31:31.036Z,63.12
2022-08-20T13:32:32.531Z,63.99
2022-08-20T13:33:33.983Z,64.88
2022-08-20T13:34:35.458Z,63.44
2022-08-20T13:35:36.965Z,62.31
2022-08-20T13:36:39.137Z,61.69
2022-08-20T13:37:42.257Z,60.85
2022-08-20T13:38:43.765Z,60.96
2022-08-20T13:39:46.368Z,61.17
2022-08-20T13:40:48.914Z,60.26
2022-08-20T13:41:50.804Z,60.21
2022-08-20T13:42:52.271Z,60.09
2022-08-20T13:43:53.761Z,60.25
2022-08-20T13:44:55.280Z,60.19
2022-08-20T13:45:57.167Z,60.80